NORTHEAST SUFFOLK  -  Special Weather Statement Special Weather Statement        NORTHERN NASSAU  -  Special Weather Statement Special Weather Statement        NORTHWEST SUFFOLK  -  Special Weather Statement Special Weather Statement        SOUTHEAST SUFFOLK  -  Special Weather Statement Special Weather Statement        SOUTHERN NASSAU  -  Special Weather Statement Special Weather Statement        SOUTHWEST SUFFOLK  -  Special Weather Statement Special Weather Statement      

Active alerts

Northern Nassau
  Details for Northern Nassau Special Weather Statement
Southern Nassau
  Details for Southern Nassau Special Weather Statement
Northwest Suffolk
  Details for Northwest Suffolk Special Weather Statement
Southwest Suffolk
  Details for Southwest Suffolk Special Weather Statement
Northeast Suffolk
  Details for Northeast Suffolk Special Weather Statement
Southeast Suffolk
  Details for Southeast Suffolk Special Weather Statement


WXM80 ListenWXM80 Stop

You find our weather info also at:

UK Metoffice

WeatherCloud

Weather Underground

Northeastern Weather Network

AWEKAS

Citizen Weather Observer Program (CWOP)

HAMweather, WeatherForYou, PWS Weather


Weather Underground History page Text

Daily Summary for January 31, 2017 Units:  Both    English   Metric
« Previous Day
Next Day »
Daily Weekly Monthly Yearly Custom
  High: Low: Average:
Temperature: 33.0 °F /  0.6 °C 25.9 °F /  -3.4 °C 29.5 °F /  -1.4 °C
Dew Point: 31.7 °F /  -0.2 °C 12.1 °F /  -11.1 °C 22.6 °F /  -5.2 °C
Humidity: 95 % 48 % 77 %
Wind Speed: 8.5 mph /  13.7 km/h - 2 mph /  3.2 km/h
Wind Gust: 11.5 mph /  18.5 km/h - -
Wind:- - SSE
Pressure: 29.99 in /  1015.5 hPa 29.73 in /  1006.7 hPa -
Precipitation: 0.03 in /  0.76 mm    
Historical Graphs
 
 
Tabular Data for January 31, 2017
Time Temperature Dew Point Pressure Wind Wind Speed Wind Gust Humidity Rainfall Rate (Hourly)
00:04 29.7 °F /  -1.3 °C 12.4 °F /  -10.9 °C 29.93 in /  1013.4 hPa West 8.5 mph /  13.7 km/h 11.5 mph /  18.5 km/h 48 % 0.00 in /  0 mm
00:09 29.6 °F /  -1.3 °C 12.3 °F /  -10.9 °C 29.93 in /  1013.4 hPa WNW 4.5 mph /  7.2 km/h 6.9 mph /  11.1 km/h 48 % 0.00 in /  0 mm
00:14 29.5 °F /  -1.4 °C 13.1 °F /  -10.5 °C 29.93 in /  1013.4 hPa NW 5.0 mph /  8 km/h 9.2 mph /  14.8 km/h 50 % 0.00 in /  0 mm
00:19 29.4 °F /  -1.4 °C 12.6 °F /  -10.8 °C 29.93 in /  1013.4 hPa WNW 3.7 mph /  6 km/h 6.9 mph /  11.1 km/h 49 % 0.00 in /  0 mm
00:24 29.3 °F /  -1.5 °C 12.5 °F /  -10.8 °C 29.93 in /  1013.4 hPa NW 3.3 mph /  5.3 km/h 4.0 mph /  6.4 km/h 49 % 0.00 in /  0 mm
00:34 29.2 °F /  -1.6 °C 12.4 °F /  -10.9 °C 29.94 in /  1013.8 hPa WNW 2.6 mph /  4.2 km/h 11.5 mph /  18.5 km/h 49 % 0.00 in /  0 mm
00:39 29.1 °F /  -1.6 °C 12.3 °F /  -10.9 °C 29.94 in /  1013.8 hPa WNW 0.6 mph /  1 km/h 4.6 mph /  7.4 km/h 49 % 0.00 in /  0 mm
00:44 29.0 °F /  -1.7 °C 12.2 °F /  -11 °C 29.94 in /  1013.8 hPa WNW 3.0 mph /  4.8 km/h 9.2 mph /  14.8 km/h 49 % 0.00 in /  0 mm
00:49 28.9 °F /  -1.7 °C 12.1 °F /  -11.1 °C 29.94 in /  1013.8 hPa West 5.6 mph /  9 km/h 11.5 mph /  18.5 km/h 49 % 0.00 in /  0 mm
00:54 28.9 °F /  -1.7 °C 12.1 °F /  -11.1 °C 29.94 in /  1013.8 hPa WNW 6.1 mph /  9.8 km/h 8.1 mph /  13 km/h 49 % 0.00 in /  0 mm
00:59 28.9 °F /  -1.7 °C 13.0 °F /  -10.6 °C 29.94 in /  1013.8 hPa West 4.5 mph /  7.2 km/h 8.1 mph /  13 km/h 51 % 0.00 in /  0 mm
01:05 28.8 °F /  -1.8 °C 12.9 °F /  -10.6 °C 29.94 in /  1013.8 hPa NW 4.8 mph /  7.7 km/h 9.2 mph /  14.8 km/h 51 % 0.00 in /  0 mm
01:10 28.8 °F /  -1.8 °C 12.5 °F /  -10.8 °C 29.94 in /  1013.8 hPa NW 4.4 mph /  7.1 km/h 7.0 mph /  11.3 km/h 50 % 0.00 in /  0 mm
01:15 28.8 °F /  -1.8 °C 12.9 °F /  -10.6 °C 29.95 in /  1014.1 hPa NW 5.1 mph /  8.2 km/h 9.2 mph /  14.8 km/h 51 % 0.00 in /  0 mm
01:20 28.7 °F /  -1.8 °C 12.8 °F /  -10.7 °C 29.95 in /  1014.1 hPa NW 4.9 mph /  7.9 km/h 8.0 mph /  12.9 km/h 51 % 0.00 in /  0 mm
01:25 28.6 °F /  -1.9 °C 12.7 °F /  -10.7 °C 29.95 in /  1014.1 hPa NW 1.8 mph /  2.9 km/h 11.5 mph /  18.5 km/h 51 % 0.00 in /  0 mm
01:30 28.5 °F /  -1.9 °C 13.1 °F /  -10.5 °C 29.95 in /  1014.1 hPa WNW 5.5 mph /  8.9 km/h 10.4 mph /  16.7 km/h 52 % 0.00 in /  0 mm
01:40 28.4 °F /  -2 °C 13.0 °F /  -10.6 °C 29.95 in /  1014.1 hPa WNW 1.5 mph /  2.4 km/h 7.0 mph /  11.3 km/h 52 % 0.00 in /  0 mm
01:45 28.4 °F /  -2 °C 13.4 °F /  -10.3 °C 29.95 in /  1014.1 hPa WNW 2.7 mph /  4.3 km/h 5.0 mph /  8 km/h 53 % 0.00 in /  0 mm
01:50 28.3 °F /  -2.1 °C 13.3 °F /  -10.4 °C 29.95 in /  1014.1 hPa WNW 2.6 mph /  4.2 km/h 8.1 mph /  13 km/h 53 % 0.00 in /  0 mm
01:55 28.2 °F /  -2.1 °C 13.7 °F /  -10.2 °C 29.95 in /  1014.1 hPa WNW 2.4 mph /  3.9 km/h 8.0 mph /  12.9 km/h 54 % 0.00 in /  0 mm
02:00 28.1 °F /  -2.2 °C 13.1 °F /  -10.5 °C 29.96 in /  1014.4 hPa WNW 4.2 mph /  6.8 km/h 8.1 mph /  13 km/h 53 % 0.00 in /  0 mm
02:05 28.0 °F /  -2.2 °C 13.1 °F /  -10.5 °C 29.95 in /  1014.1 hPa NW 1.7 mph /  2.7 km/h 3.5 mph /  5.6 km/h 53 % 0.00 in /  0 mm
02:10 28.0 °F /  -2.2 °C 13.5 °F /  -10.3 °C 29.95 in /  1014.1 hPa WNW 2.6 mph /  4.2 km/h 5.0 mph /  8 km/h 54 % 0.00 in /  0 mm
02:15 27.9 °F /  -2.3 °C 13.8 °F /  -10.1 °C 29.95 in /  1014.1 hPa WNW 3.3 mph /  5.3 km/h 4.6 mph /  7.4 km/h 55 % 0.00 in /  0 mm
02:20 27.8 °F /  -2.3 °C 13.7 °F /  -10.2 °C 29.95 in /  1014.1 hPa WNW 1.6 mph /  2.6 km/h 3.0 mph /  4.8 km/h 55 % 0.00 in /  0 mm
02:25 27.8 °F /  -2.3 °C 14.1 °F /  -9.9 °C 29.95 in /  1014.1 hPa West 2.9 mph /  4.7 km/h 4.0 mph /  6.4 km/h 56 % 0.00 in /  0 mm
02:30 27.7 °F /  -2.4 °C 14.0 °F /  -10 °C 29.95 in /  1014.1 hPa NW 1.1 mph /  1.8 km/h 3.5 mph /  5.6 km/h 56 % 0.00 in /  0 mm
02:35 27.6 °F /  -2.4 °C 13.5 °F /  -10.3 °C 29.96 in /  1014.4 hPa NW 2.2 mph /  3.5 km/h 8.1 mph /  13 km/h 55 % 0.00 in /  0 mm
02:40 27.5 °F /  -2.5 °C 13.4 °F /  -10.3 °C 29.96 in /  1014.4 hPa West 3.4 mph /  5.5 km/h 8.0 mph /  12.9 km/h 55 % 0.00 in /  0 mm
02:45 27.4 °F /  -2.6 °C 13.3 °F /  -10.4 °C 29.96 in /  1014.4 hPa NW 5.7 mph /  9.2 km/h 9.2 mph /  14.8 km/h 55 % 0.00 in /  0 mm
02:50 27.4 °F /  -2.6 °C 13.3 °F /  -10.4 °C 29.97 in /  1014.8 hPa NW 3.0 mph /  4.8 km/h 6.9 mph /  11.1 km/h 55 % 0.00 in /  0 mm
02:55 27.3 °F /  -2.6 °C 13.2 °F /  -10.4 °C 29.98 in /  1015.1 hPa WNW 3.2 mph /  5.1 km/h 6.9 mph /  11.1 km/h 55 % 0.00 in /  0 mm
03:00 27.3 °F /  -2.6 °C 13.7 °F /  -10.2 °C 29.98 in /  1015.1 hPa NW 2.2 mph /  3.5 km/h 10.4 mph /  16.7 km/h 56 % 0.00 in /  0 mm
03:05 27.2 °F /  -2.7 °C 13.1 °F /  -10.5 °C 29.98 in /  1015.1 hPa NW 5.4 mph /  8.7 km/h 10.0 mph /  16.1 km/h 55 % 0.00 in /  0 mm
03:10 27.3 °F /  -2.6 °C 13.2 °F /  -10.4 °C 29.98 in /  1015.1 hPa West 2.8 mph /  4.5 km/h 4.0 mph /  6.4 km/h 55 % 0.00 in /  0 mm
03:16 27.2 °F /  -2.7 °C 13.6 °F /  -10.2 °C 29.98 in /  1015.1 hPa West 4.0 mph /  6.4 km/h 6.9 mph /  11.1 km/h 56 % 0.00 in /  0 mm
03:21 27.2 °F /  -2.7 °C 13.1 °F /  -10.5 °C 29.98 in /  1015.1 hPa WSW 4.4 mph /  7.1 km/h 9.0 mph /  14.5 km/h 55 % 0.00 in /  0 mm
03:26 27.2 °F /  -2.7 °C 13.6 °F /  -10.2 °C 29.98 in /  1015.1 hPa NW 2.3 mph /  3.7 km/h 5.8 mph /  9.3 km/h 56 % 0.00 in /  0 mm
03:31 27.2 °F /  -2.7 °C 14.0 °F /  -10 °C 29.99 in /  1015.5 hPa NNW 2.3 mph /  3.7 km/h 5.8 mph /  9.3 km/h 57 % 0.00 in /  0 mm
03:36 27.1 °F /  -2.7 °C 13.5 °F /  -10.3 °C 29.99 in /  1015.5 hPa WSW 1.2 mph /  1.9 km/h 4.6 mph /  7.4 km/h 56 % 0.00 in /  0 mm
03:41 27.1 °F /  -2.7 °C 13.5 °F /  -10.3 °C 29.98 in /  1015.1 hPa West 2.8 mph /  4.5 km/h 10.4 mph /  16.7 km/h 56 % 0.00 in /  0 mm
03:46 27.1 °F /  -2.7 °C 13.5 °F /  -10.3 °C 29.98 in /  1015.1 hPa WSW 4.0 mph /  6.4 km/h 4.6 mph /  7.4 km/h 56 % 0.00 in /  0 mm
03:51 27.2 °F /  -2.7 °C 13.6 °F /  -10.2 °C 29.98 in /  1015.1 hPa WNW 3.7 mph /  6 km/h 6.9 mph /  11.1 km/h 56 % 0.00 in /  0 mm
03:56 27.2 °F /  -2.7 °C 13.6 °F /  -10.2 °C 29.98 in /  1015.1 hPa WNW 5.9 mph /  9.5 km/h 8.0 mph /  12.9 km/h 56 % 0.00 in /  0 mm
04:01 27.2 °F /  -2.7 °C 14.0 °F /  -10 °C 29.98 in /  1015.1 hPa WNW 5.8 mph /  9.3 km/h 9.2 mph /  14.8 km/h 57 % 0.00 in /  0 mm
04:06 27.2 °F /  -2.7 °C 14.0 °F /  -10 °C 29.98 in /  1015.1 hPa WSW 1.2 mph /  1.9 km/h 4.0 mph /  6.4 km/h 57 % 0.00 in /  0 mm
04:11 27.2 °F /  -2.7 °C 14.0 °F /  -10 °C 29.98 in /  1015.1 hPa West 2.6 mph /  4.2 km/h 4.6 mph /  7.4 km/h 57 % 0.00 in /  0 mm
04:16 27.2 °F /  -2.7 °C 13.6 °F /  -10.2 °C 29.99 in /  1015.5 hPa WSW 2.7 mph /  4.3 km/h 6.0 mph /  9.7 km/h 56 % 0.00 in /  0 mm
04:21 27.2 °F /  -2.7 °C 14.0 °F /  -10 °C 29.98 in /  1015.1 hPa WNW 1.6 mph /  2.6 km/h 4.6 mph /  7.4 km/h 57 % 0.00 in /  0 mm
04:26 27.1 °F /  -2.7 °C 13.5 °F /  -10.3 °C 29.97 in /  1014.8 hPa West 0.5 mph /  0.8 km/h 3.5 mph /  5.6 km/h 56 % 0.00 in /  0 mm
04:31 27.1 °F /  -2.7 °C 13.9 °F /  -10.1 °C 29.97 in /  1014.8 hPa WNW 0.9 mph /  1.4 km/h 3.5 mph /  5.6 km/h 57 % 0.00 in /  0 mm
04:36 27.0 °F /  -2.8 °C 13.8 °F /  -10.1 °C 29.97 in /  1014.8 hPa NW 3.0 mph /  4.8 km/h 5.8 mph /  9.3 km/h 57 % 0.00 in /  0 mm
04:41 27.0 °F /  -2.8 °C 13.8 °F /  -10.1 °C 29.97 in /  1014.8 hPa WNW 2.9 mph /  4.7 km/h 3.0 mph /  4.8 km/h 57 % 0.00 in /  0 mm
04:51 26.9 °F /  -2.8 °C 13.7 °F /  -10.2 °C 29.97 in /  1014.8 hPa NW 0.3 mph /  0.5 km/h 3.5 mph /  5.6 km/h 57 % 0.00 in /  0 mm
04:56 26.8 °F /  -2.9 °C 14.0 °F /  -10 °C 29.97 in /  1014.8 hPa WNW 1.8 mph /  2.9 km/h 3.5 mph /  5.6 km/h 58 % 0.00 in /  0 mm
05:01 26.7 °F /  -2.9 °C 13.9 °F /  -10.1 °C 29.97 in /  1014.8 hPa Calm   2.3 mph /  3.7 km/h 58 % 0.00 in /  0 mm
05:06 26.7 °F /  -2.9 °C 13.9 °F /  -10.1 °C 29.96 in /  1014.4 hPa WNW 0.4 mph /  0.6 km/h 4.0 mph /  6.4 km/h 58 % 0.00 in /  0 mm
05:11 26.6 °F /  -3 °C 13.8 °F /  -10.1 °C 29.96 in /  1014.4 hPa Calm     58 % 0.00 in /  0 mm
05:16 26.6 °F /  -3 °C 13.8 °F /  -10.1 °C 29.96 in /  1014.4 hPa Calm     58 % 0.00 in /  0 mm
05:21 26.6 °F /  -3 °C 13.8 °F /  -10.1 °C 29.95 in /  1014.1 hPa WNW 0.9 mph /  1.4 km/h 3.5 mph /  5.6 km/h 58 % 0.00 in /  0 mm
05:26 26.5 °F /  -3.1 °C 14.1 °F /  -9.9 °C 29.95 in /  1014.1 hPa NNW 2.1 mph /  3.4 km/h 3.5 mph /  5.6 km/h 59 % 0.00 in /  0 mm
05:32 26.5 °F /  -3.1 °C 14.1 °F /  -9.9 °C 29.95 in /  1014.1 hPa NNW 2.3 mph /  3.7 km/h 3.5 mph /  5.6 km/h 59 % 0.00 in /  0 mm
05:37 26.5 °F /  -3.1 °C 13.7 °F /  -10.2 °C 29.95 in /  1014.1 hPa NW 2.2 mph /  3.5 km/h 3.5 mph /  5.6 km/h 58 % 0.00 in /  0 mm
05:42 26.5 °F /  -3.1 °C 13.3 °F /  -10.4 °C 29.96 in /  1014.4 hPa NNW 1.5 mph /  2.4 km/h 3.5 mph /  5.6 km/h 57 % 0.00 in /  0 mm
05:47 26.5 °F /  -3.1 °C 13.3 °F /  -10.4 °C 29.96 in /  1014.4 hPa Calm   1.2 mph /  1.9 km/h 57 % 0.00 in /  0 mm
05:52 26.5 °F /  -3.1 °C 13.3 °F /  -10.4 °C 29.95 in /  1014.1 hPa Calm   1.2 mph /  1.9 km/h 57 % 0.00 in /  0 mm
05:57 26.5 °F /  -3.1 °C 13.7 °F /  -10.2 °C 29.95 in /  1014.1 hPa Calm   1.0 mph /  1.6 km/h 58 % 0.00 in /  0 mm
06:02 26.5 °F /  -3.1 °C 14.1 °F /  -9.9 °C 29.95 in /  1014.1 hPa NNW 0.5 mph /  0.8 km/h 2.3 mph /  3.7 km/h 59 % 0.00 in /  0 mm
06:07 26.5 °F /  -3.1 °C 14.1 °F /  -9.9 °C 29.95 in /  1014.1 hPa NNW 0.6 mph /  1 km/h 2.3 mph /  3.7 km/h 59 % 0.00 in /  0 mm
06:12 26.4 °F /  -3.1 °C 13.6 °F /  -10.2 °C 29.95 in /  1014.1 hPa Calm     58 % 0.00 in /  0 mm
06:17 26.3 °F /  -3.2 °C 13.5 °F /  -10.3 °C 29.96 in /  1014.4 hPa Calm     58 % 0.00 in /  0 mm
06:22 26.3 °F /  -3.2 °C 13.9 °F /  -10.1 °C 29.96 in /  1014.4 hPa Calm     59 % 0.00 in /  0 mm
06:27 26.2 °F /  -3.2 °C 14.2 °F /  -9.9 °C 29.96 in /  1014.4 hPa Calm     60 % 0.00 in /  0 mm
06:32 26.1 °F /  -3.3 °C 14.1 °F /  -9.9 °C 29.95 in /  1014.1 hPa Calm     60 % 0.00 in /  0 mm
06:37 26.1 °F /  -3.3 °C 14.5 °F /  -9.7 °C 29.95 in /  1014.1 hPa Calm     61 % 0.00 in /  0 mm
06:42 26.0 °F /  -3.3 °C 14.8 °F /  -9.6 °C 29.96 in /  1014.4 hPa NNW 0.1 mph /  0.2 km/h 1.2 mph /  1.9 km/h 62 % 0.00 in /  0 mm
06:47 26.0 °F /  -3.3 °C 14.8 °F /  -9.6 °C 29.95 in /  1014.1 hPa Calm     62 % 0.00 in /  0 mm
06:52 25.9 °F /  -3.4 °C 15.0 °F /  -9.4 °C 29.95 in /  1014.1 hPa Calm     63 % 0.00 in /  0 mm
06:57 25.9 °F /  -3.4 °C 15.0 °F /  -9.4 °C 29.95 in /  1014.1 hPa Calm     63 % 0.00 in /  0 mm
07:02 25.9 °F /  -3.4 °C 15.0 °F /  -9.4 °C 29.95 in /  1014.1 hPa Calm     63 % 0.00 in /  0 mm
07:07 26.0 °F /  -3.3 °C 15.5 °F /  -9.2 °C 29.95 in /  1014.1 hPa Calm     64 % 0.00 in /  0 mm
07:12 26.0 °F /  -3.3 °C 15.8 °F /  -9 °C 29.95 in /  1014.1 hPa Calm     65 % 0.00 in /  0 mm
07:17 26.0 °F /  -3.3 °C 15.8 °F /  -9 °C 29.95 in /  1014.1 hPa Calm     65 % 0.00 in /  0 mm
07:22 26.0 °F /  -3.3 °C 16.2 °F /  -8.8 °C 29.94 in /  1013.8 hPa Calm     66 % 0.00 in /  0 mm
07:27 26.1 °F /  -3.3 °C 16.3 °F /  -8.7 °C 29.94 in /  1013.8 hPa Calm     66 % 0.00 in /  0 mm
07:32 26.1 °F /  -3.3 °C 16.6 °F /  -8.6 °C 29.94 in /  1013.8 hPa Calm     67 % 0.00 in /  0 mm
07:38 26.1 °F /  -3.3 °C 16.6 °F /  -8.6 °C 29.94 in /  1013.8 hPa Calm     67 % 0.00 in /  0 mm
07:43 26.1 °F /  -3.3 °C 16.6 °F /  -8.6 °C 29.94 in /  1013.8 hPa Calm     67 % 0.00 in /  0 mm
07:48 26.2 °F /  -3.2 °C 16.7 °F /  -8.5 °C 29.95 in /  1014.1 hPa Calm     67 % 0.00 in /  0 mm
07:53 26.2 °F /  -3.2 °C 16.4 °F /  -8.7 °C 29.95 in /  1014.1 hPa NNW 1.1 mph /  1.8 km/h 2.3 mph /  3.7 km/h 66 % 0.00 in /  0 mm
07:58 26.2 °F /  -3.2 °C 16.7 °F /  -8.5 °C 29.95 in /  1014.1 hPa West 1.3 mph /  2.1 km/h 3.5 mph /  5.6 km/h 67 % 0.00 in /  0 mm
08:03 26.3 °F /  -3.2 °C 16.5 °F /  -8.6 °C 29.95 in /  1014.1 hPa Calm   1.2 mph /  1.9 km/h 66 % 0.00 in /  0 mm
08:08 26.4 °F /  -3.1 °C 16.6 °F /  -8.6 °C 29.95 in /  1014.1 hPa Calm   1.2 mph /  1.9 km/h 66 % 0.00 in /  0 mm
08:13 26.5 °F /  -3.1 °C 16.7 °F /  -8.5 °C 29.94 in /  1013.8 hPa Calm   1.2 mph /  1.9 km/h 66 % 0.00 in /  0 mm
08:18 26.7 °F /  -2.9 °C 16.5 °F /  -8.6 °C 29.95 in /  1014.1 hPa Calm     65 % 0.00 in /  0 mm
08:23 27.0 °F /  -2.8 °C 16.4 °F /  -8.7 °C 29.94 in /  1013.8 hPa Calm     64 % 0.00 in /  0 mm
08:28 27.3 °F /  -2.6 °C 16.4 °F /  -8.7 °C 29.93 in /  1013.4 hPa SE 0.2 mph /  0.3 km/h 2.3 mph /  3.7 km/h 63 % 0.00 in /  0 mm
08:33 27.5 °F /  -2.5 °C 16.5 °F /  -8.6 °C 29.94 in /  1013.8 hPa SE 0.3 mph /  0.5 km/h 1.2 mph /  1.9 km/h 63 % 0.00 in /  0 mm
08:38 27.7 °F /  -2.4 °C 16.4 °F /  -8.7 °C 29.94 in /  1013.8 hPa SE 1.0 mph /  1.6 km/h 2.3 mph /  3.7 km/h 62 % 0.00 in /  0 mm
08:43 27.8 °F /  -2.3 °C 16.5 °F /  -8.6 °C 29.94 in /  1013.8 hPa SE 0.3 mph /  0.5 km/h 2.3 mph /  3.7 km/h 62 % 0.00 in /  0 mm
08:48 28.0 °F /  -2.2 °C 15.9 °F /  -8.9 °C 29.94 in /  1013.8 hPa SE 0.8 mph /  1.3 km/h 2.3 mph /  3.7 km/h 60 % 0.00 in /  0 mm
08:53 28.1 °F /  -2.2 °C 16.4 °F /  -8.7 °C 29.94 in /  1013.8 hPa SE 0.2 mph /  0.3 km/h 1.0 mph /  1.6 km/h 61 % 0.00 in /  0 mm
08:58 28.3 °F /  -2.1 °C 16.2 °F /  -8.8 °C 29.94 in /  1013.8 hPa SE 0.1 mph /  0.2 km/h 2.3 mph /  3.7 km/h 60 % 0.00 in /  0 mm
09:03 28.4 °F /  -2 °C 16.3 °F /  -8.7 °C 29.94 in /  1013.8 hPa SE 1.9 mph /  3.1 km/h 3.5 mph /  5.6 km/h 60 % 0.00 in /  0 mm
09:08 28.6 °F /  -1.9 °C 16.1 °F /  -8.8 °C 29.93 in /  1013.4 hPa SE 0.8 mph /  1.3 km/h 2.3 mph /  3.7 km/h 59 % 0.00 in /  0 mm
09:13 28.7 °F /  -1.8 °C 16.6 °F /  -8.6 °C 29.94 in /  1013.8 hPa SE 0.9 mph /  1.4 km/h 2.0 mph /  3.2 km/h 60 % 0.00 in /  0 mm
09:18 28.8 °F /  -1.8 °C 16.3 °F /  -8.7 °C 29.94 in /  1013.8 hPa SE 0.7 mph /  1.1 km/h 2.3 mph /  3.7 km/h 59 % 0.00 in /  0 mm
09:23 28.9 °F /  -1.7 °C 16.4 °F /  -8.7 °C 29.94 in /  1013.8 hPa Calm     59 % 0.00 in /  0 mm
09:28 28.9 °F /  -1.7 °C 16.4 °F /  -8.7 °C 29.93 in /  1013.4 hPa Calm     59 % 0.00 in /  0 mm
09:33 29.0 °F /  -1.7 °C 16.4 °F /  -8.7 °C 29.94 in /  1013.8 hPa SE 1.5 mph /  2.4 km/h 2.0 mph /  3.2 km/h 59 % 0.00 in /  0 mm
09:38 29.0 °F /  -1.7 °C 16.1 °F /  -8.8 °C 29.94 in /  1013.8 hPa SE 1.0 mph /  1.6 km/h 4.0 mph /  6.4 km/h 58 % 0.00 in /  0 mm
09:43 29.0 °F /  -1.7 °C 16.1 °F /  -8.8 °C 29.95 in /  1014.1 hPa SSE 2.0 mph /  3.2 km/h 4.0 mph /  6.4 km/h 58 % 0.00 in /  0 mm
09:48 29.1 °F /  -1.6 °C 15.7 °F /  -9.1 °C 29.94 in /  1013.8 hPa Calm   2.0 mph /  3.2 km/h 57 % 0.00 in /  0 mm
09:53 29.1 °F /  -1.6 °C 16.1 °F /  -8.8 °C 29.93 in /  1013.4 hPa ESE 0.3 mph /  0.5 km/h 2.3 mph /  3.7 km/h 58 % 0.00 in /  0 mm
09:59 29.2 °F /  -1.6 °C 15.8 °F /  -9 °C 29.93 in /  1013.4 hPa ESE 0.6 mph /  1 km/h 2.3 mph /  3.7 km/h 57 % 0.00 in /  0 mm
10:04 29.2 °F /  -1.6 °C 16.6 °F /  -8.6 °C 29.93 in /  1013.4 hPa ESE 1.5 mph /  2.4 km/h 3.0 mph /  4.8 km/h 59 % 0.00 in /  0 mm
10:09 29.2 °F /  -1.6 °C 16.6 °F /  -8.6 °C 29.93 in /  1013.4 hPa ESE 1.1 mph /  1.8 km/h 3.5 mph /  5.6 km/h 59 % 0.00 in /  0 mm
10:14 29.2 °F /  -1.6 °C 16.2 °F /  -8.8 °C 29.92 in /  1013.1 hPa ESE 1.1 mph /  1.8 km/h 3.5 mph /  5.6 km/h 58 % 0.00 in /  0 mm
10:19 29.2 °F /  -1.6 °C 16.6 °F /  -8.6 °C 29.92 in /  1013.1 hPa East 1.3 mph /  2.1 km/h 3.5 mph /  5.6 km/h 59 % 0.00 in /  0 mm
10:24 29.2 °F /  -1.6 °C 16.6 °F /  -8.6 °C 29.92 in /  1013.1 hPa SE 3.9 mph /  6.3 km/h 5.8 mph /  9.3 km/h 59 % 0.00 in /  0 mm
10:29 29.3 °F /  -1.5 °C 16.3 °F /  -8.7 °C 29.91 in /  1012.8 hPa SSE 0.2 mph /  0.3 km/h 3.5 mph /  5.6 km/h 58 % 0.00 in /  0 mm
10:34 29.4 °F /  -1.4 °C 16.8 °F /  -8.4 °C 29.91 in /  1012.8 hPa SSE 1.4 mph /  2.3 km/h 3.5 mph /  5.6 km/h 59 % 0.00 in /  0 mm
10:39 29.5 °F /  -1.4 °C 17.7 °F /  -7.9 °C 29.92 in /  1013.1 hPa SE 1.2 mph /  1.9 km/h 4.0 mph /  6.4 km/h 61 % 0.00 in /  0 mm
10:44 29.6 °F /  -1.3 °C 18.5 °F /  -7.5 °C 29.92 in /  1013.1 hPa SSE 2.6 mph /  4.2 km/h 6.9 mph /  11.1 km/h 63 % 0.00 in /  0 mm
10:49 29.6 °F /  -1.3 °C 19.3 °F /  -7.1 °C 29.92 in /  1013.1 hPa South 2.5 mph /  4 km/h 4.0 mph /  6.4 km/h 65 % 0.00 in /  0 mm
10:54 29.6 °F /  -1.3 °C 20.3 °F /  -6.5 °C 29.92 in /  1013.1 hPa SE 3.5 mph /  5.6 km/h 5.8 mph /  9.3 km/h 68 % 0.00 in /  0 mm
10:59 29.3 °F /  -1.5 °C 21.1 °F /  -6.1 °C 29.92 in /  1013.1 hPa SE 3.7 mph /  6 km/h 4.6 mph /  7.4 km/h 71 % 0.00 in /  0 mm
11:04 29.2 °F /  -1.6 °C 21.6 °F /  -5.8 °C 29.92 in /  1013.1 hPa SSE 4.4 mph /  7.1 km/h 5.8 mph /  9.3 km/h 73 % 0.00 in /  0 mm
11:09 29.1 °F /  -1.6 °C 22.2 °F /  -5.4 °C 29.91 in /  1012.8 hPa SE 3.6 mph /  5.8 km/h 5.0 mph /  8 km/h 75 % 0.00 in /  0 mm
11:14 29.1 °F /  -1.6 °C 22.8 °F /  -5.1 °C 29.91 in /  1012.8 hPa SE 3.0 mph /  4.8 km/h 6.0 mph /  9.7 km/h 77 % 0.00 in /  0 mm
11:19 28.9 °F /  -1.7 °C 23.2 °F /  -4.9 °C 29.90 in /  1012.4 hPa SE 0.8 mph /  1.3 km/h 2.3 mph /  3.7 km/h 79 % 0.00 in /  0 mm
11:24 28.9 °F /  -1.7 °C 23.8 °F /  -4.6 °C 29.89 in /  1012.1 hPa East 0.6 mph /  1 km/h 3.5 mph /  5.6 km/h 81 % 0.00 in /  0 mm
11:29 28.8 °F /  -1.8 °C 24.3 °F /  -4.3 °C 29.89 in /  1012.1 hPa SE 1.4 mph /  2.3 km/h 2.3 mph /  3.7 km/h 83 % 0.00 in /  0 mm
11:34 28.8 °F /  -1.8 °C 24.6 °F /  -4.1 °C 29.89 in /  1012.1 hPa SSE 1.3 mph /  2.1 km/h 2.0 mph /  3.2 km/h 84 % 0.00 in /  0 mm
11:39 28.7 °F /  -1.8 °C 24.5 °F /  -4.2 °C 29.88 in /  1011.7 hPa East 2.0 mph /  3.2 km/h 3.5 mph /  5.6 km/h 84 % 0.00 in /  0 mm
11:44 28.6 °F /  -1.9 °C 24.7 °F /  -4.1 °C 29.86 in /  1011.1 hPa East 2.5 mph /  4 km/h 5.8 mph /  9.3 km/h 85 % 0.00 in /  0 mm
11:49 28.5 °F /  -1.9 °C 24.8 °F /  -4 °C 29.86 in /  1011.1 hPa East 3.6 mph /  5.8 km/h 5.0 mph /  8 km/h 86 % 0.00 in /  0 mm
11:54 28.5 °F /  -1.9 °C 24.8 °F /  -4 °C 29.86 in /  1011.1 hPa East 1.8 mph /  2.9 km/h 3.0 mph /  4.8 km/h 86 % 0.00 in /  0 mm
11:59 28.4 °F /  -2 °C 25.0 °F /  -3.9 °C 29.86 in /  1011.1 hPa East 0.4 mph /  0.6 km/h 2.3 mph /  3.7 km/h 87 % 0.00 in /  0 mm
12:04 28.4 °F /  -2 °C 25.0 °F /  -3.9 °C 29.85 in /  1010.7 hPa East 0.7 mph /  1.1 km/h 3.5 mph /  5.6 km/h 87 % 0.00 in /  0 mm
12:10 28.4 °F /  -2 °C 25.3 °F /  -3.7 °C 29.85 in /  1010.7 hPa ESE 0.8 mph /  1.3 km/h 2.3 mph /  3.7 km/h 88 % 0.00 in /  0 mm
12:15 28.5 °F /  -1.9 °C 25.4 °F /  -3.7 °C 29.84 in /  1010.4 hPa East 2.0 mph /  3.2 km/h 3.5 mph /  5.6 km/h 88 % 0.00 in /  0 mm
12:20 28.5 °F /  -1.9 °C 25.4 °F /  -3.7 °C 29.84 in /  1010.4 hPa East 2.2 mph /  3.5 km/h 3.5 mph /  5.6 km/h 88 % 0.00 in /  0 mm
12:25 28.5 °F /  -1.9 °C 25.7 °F /  -3.5 °C 29.84 in /  1010.4 hPa East 2.2 mph /  3.5 km/h 3.5 mph /  5.6 km/h 89 % 0.00 in /  0 mm
12:30 28.6 °F /  -1.9 °C 25.8 °F /  -3.4 °C 29.84 in /  1010.4 hPa East 0.3 mph /  0.5 km/h 2.3 mph /  3.7 km/h 89 % 0.00 in /  0 mm
12:35 28.7 °F /  -1.8 °C 25.9 °F /  -3.4 °C 29.84 in /  1010.4 hPa East 1.4 mph /  2.3 km/h 3.5 mph /  5.6 km/h 89 % 0.00 in /  0 mm
12:40 28.8 °F /  -1.8 °C 26.0 °F /  -3.3 °C 29.83 in /  1010 hPa East 0.7 mph /  1.1 km/h 3.0 mph /  4.8 km/h 89 % 0.00 in /  0 mm
12:45 28.9 °F /  -1.7 °C 26.3 °F /  -3.2 °C 29.83 in /  1010 hPa East 2.1 mph /  3.4 km/h 3.5 mph /  5.6 km/h 90 % 0.00 in /  0 mm
12:50 29.0 °F /  -1.7 °C 26.2 °F /  -3.2 °C 29.82 in /  1009.7 hPa East 1.5 mph /  2.4 km/h 2.3 mph /  3.7 km/h 89 % 0.00 in /  0 mm
12:55 29.0 °F /  -1.7 °C 26.2 °F /  -3.2 °C 29.82 in /  1009.7 hPa ENE 2.4 mph /  3.9 km/h 3.5 mph /  5.6 km/h 89 % 0.00 in /  0 mm
13:00 29.0 °F /  -1.7 °C 26.2 °F /  -3.2 °C 29.81 in /  1009.4 hPa East 0.5 mph /  0.8 km/h 1.2 mph /  1.9 km/h 89 % 0.00 in /  0 mm
13:05 29.1 °F /  -1.6 °C 26.3 °F /  -3.2 °C 29.81 in /  1009.4 hPa East 1.3 mph /  2.1 km/h 3.5 mph /  5.6 km/h 89 % 0.00 in /  0 mm
13:10 29.2 °F /  -1.6 °C 26.4 °F /  -3.1 °C 29.81 in /  1009.4 hPa East 2.4 mph /  3.9 km/h 4.6 mph /  7.4 km/h 89 % 0.00 in /  0 mm
13:15 29.2 °F /  -1.6 °C 26.4 °F /  -3.1 °C 29.80 in /  1009 hPa SE 0.7 mph /  1.1 km/h 2.3 mph /  3.7 km/h 89 % 0.00 in /  0 mm
13:20 29.2 °F /  -1.6 °C 26.6 °F /  -3 °C 29.80 in /  1009 hPa East 1.0 mph /  1.6 km/h 3.5 mph /  5.6 km/h 90 % 0.00 in /  0 mm
13:25 29.3 °F /  -1.5 °C 26.7 °F /  -2.9 °C 29.80 in /  1009 hPa East 2.2 mph /  3.5 km/h 4.6 mph /  7.4 km/h 90 % 0.00 in /  0 mm
13:30 29.2 °F /  -1.6 °C 26.6 °F /  -3 °C 29.79 in /  1008.7 hPa East 3.5 mph /  5.6 km/h 5.8 mph /  9.3 km/h 90 % 0.00 in /  0 mm
13:35 29.2 °F /  -1.6 °C 26.6 °F /  -3 °C 29.79 in /  1008.7 hPa East 1.9 mph /  3.1 km/h 2.3 mph /  3.7 km/h 90 % 0.00 in /  0 mm
13:40 29.2 °F /  -1.6 °C 26.6 °F /  -3 °C 29.79 in /  1008.7 hPa East 2.8 mph /  4.5 km/h 3.5 mph /  5.6 km/h 90 % 0.01 in /  0.25 mm
13:45 29.2 °F /  -1.6 °C 26.9 °F /  -2.8 °C 29.78 in /  1008.4 hPa East 2.4 mph /  3.9 km/h 5.0 mph /  8 km/h 91 % 0.01 in /  0.25 mm
13:50 29.3 °F /  -1.5 °C 27.0 °F /  -2.8 °C 29.78 in /  1008.4 hPa East 3.2 mph /  5.1 km/h 5.0 mph /  8 km/h 91 % 0.01 in /  0.25 mm
13:55 29.3 °F /  -1.5 °C 27.0 °F /  -2.8 °C 29.78 in /  1008.4 hPa East 2.6 mph /  4.2 km/h 3.5 mph /  5.6 km/h 91 % 0.01 in /  0.25 mm
14:00 29.5 °F /  -1.4 °C 27.5 °F /  -2.5 °C 29.76 in /  1007.7 hPa East 2.7 mph /  4.3 km/h 3.5 mph /  5.6 km/h 92 % 0.01 in /  0.25 mm
14:05 29.6 °F /  -1.3 °C 27.6 °F /  -2.4 °C 29.76 in /  1007.7 hPa East 4.2 mph /  6.8 km/h 6.9 mph /  11.1 km/h 92 % 0.01 in /  0.25 mm
14:10 29.6 °F /  -1.3 °C 27.6 °F /  -2.4 °C 29.76 in /  1007.7 hPa East 2.9 mph /  4.7 km/h 3.5 mph /  5.6 km/h 92 % 0.01 in /  0.25 mm
14:16 29.6 °F /  -1.3 °C 27.6 °F /  -2.4 °C 29.76 in /  1007.7 hPa East 2.8 mph /  4.5 km/h 5.8 mph /  9.3 km/h 92 % 0.01 in /  0.25 mm
14:21 29.6 °F /  -1.3 °C 27.6 °F /  -2.4 °C 29.75 in /  1007.3 hPa East 3.8 mph /  6.1 km/h 5.0 mph /  8 km/h 92 % 0.01 in /  0.25 mm
14:26 29.6 °F /  -1.3 °C 27.6 °F /  -2.4 °C 29.75 in /  1007.3 hPa East 3.4 mph /  5.5 km/h 4.6 mph /  7.4 km/h 92 % 0.01 in /  0.25 mm
14:31 29.6 °F /  -1.3 °C 27.6 °F /  -2.4 °C 29.75 in /  1007.3 hPa East 3.1 mph /  5 km/h 4.6 mph /  7.4 km/h 92 % 0.01 in /  0.25 mm
14:36 29.6 °F /  -1.3 °C 27.6 °F /  -2.4 °C 29.75 in /  1007.3 hPa East 3.2 mph /  5.1 km/h 5.8 mph /  9.3 km/h 92 % 0.02 in /  0.51 mm
14:41 29.6 °F /  -1.3 °C 27.6 °F /  -2.4 °C 29.75 in /  1007.3 hPa ENE 4.2 mph /  6.8 km/h 5.8 mph /  9.3 km/h 92 % 0.01 in /  0.25 mm
14:46 29.7 °F /  -1.3 °C 27.9 °F /  -2.3 °C 29.75 in /  1007.3 hPa East 3.9 mph /  6.3 km/h 6.0 mph /  9.7 km/h 93 % 0.01 in /  0.25 mm
14:51 29.7 °F /  -1.3 °C 27.9 °F /  -2.3 °C 29.74 in /  1007 hPa ENE 4.0 mph /  6.4 km/h 6.9 mph /  11.1 km/h 93 % 0.01 in /  0.25 mm
14:56 29.7 °F /  -1.3 °C 27.9 °F /  -2.3 °C 29.74 in /  1007 hPa East 4.7 mph /  7.6 km/h 6.9 mph /  11.1 km/h 93 % 0.01 in /  0.25 mm
15:01 29.8 °F /  -1.2 °C 28.0 °F /  -2.2 °C 29.75 in /  1007.3 hPa ENE 2.9 mph /  4.7 km/h 3.5 mph /  5.6 km/h 93 % 0.01 in /  0.25 mm
15:06 29.8 °F /  -1.2 °C 28.0 °F /  -2.2 °C 29.74 in /  1007 hPa ENE 4.2 mph /  6.8 km/h 6.9 mph /  11.1 km/h 93 % 0.02 in /  0.51 mm
15:11 30.0 °F /  -1.1 °C 28.2 °F /  -2.1 °C 29.74 in /  1007 hPa East 3.0 mph /  4.8 km/h 4.6 mph /  7.4 km/h 93 % 0.02 in /  0.51 mm
15:16 30.1 °F /  -1.1 °C 28.3 °F /  -2.1 °C 29.74 in /  1007 hPa ENE 5.2 mph /  8.4 km/h 5.8 mph /  9.3 km/h 93 % 0.02 in /  0.51 mm
15:21 30.2 °F /  -1 °C 28.7 °F /  -1.8 °C 29.74 in /  1007 hPa East 5.1 mph /  8.2 km/h 7.0 mph /  11.3 km/h 94 % 0.02 in /  0.51 mm
15:26 30.3 °F /  -0.9 °C 28.8 °F /  -1.8 °C 29.74 in /  1007 hPa East 6.3 mph /  10.1 km/h 9.2 mph /  14.8 km/h 94 % 0.02 in /  0.51 mm
15:31 30.4 °F /  -0.9 °C 28.9 °F /  -1.7 °C 29.74 in /  1007 hPa East 3.9 mph /  6.3 km/h 5.0 mph /  8 km/h 94 % 0.02 in /  0.51 mm
15:36 30.4 °F /  -0.9 °C 28.6 °F /  -1.9 °C 29.74 in /  1007 hPa East 6.6 mph /  10.6 km/h 9.2 mph /  14.8 km/h 93 % 0.01 in /  0.25 mm
15:41 30.4 °F /  -0.9 °C 28.6 °F /  -1.9 °C 29.74 in /  1007 hPa East 3.2 mph /  5.1 km/h 4.6 mph /  7.4 km/h 93 % 0.01 in /  0.25 mm
15:46 30.4 °F /  -0.9 °C 28.6 °F /  -1.9 °C 29.73 in /  1006.7 hPa East 8.0 mph /  12.9 km/h 9.2 mph /  14.8 km/h 93 % 0.01 in /  0.25 mm
15:51 30.3 °F /  -0.9 °C 28.5 °F /  -1.9 °C 29.74 in /  1007 hPa East 2.9 mph /  4.7 km/h 8.1 mph /  13 km/h 93 % 0.01 in /  0.25 mm
15:56 30.4 °F /  -0.9 °C 28.6 °F /  -1.9 °C 29.74 in /  1007 hPa East 3.6 mph /  5.8 km/h 5.8 mph /  9.3 km/h 93 % 0.01 in /  0.25 mm
16:01 30.4 °F /  -0.9 °C 28.6 °F /  -1.9 °C 29.75 in /  1007.3 hPa East 3.3 mph /  5.3 km/h 8.1 mph /  13 km/h 93 % 0.01 in /  0.25 mm
16:06 30.5 °F /  -0.8 °C 28.7 °F /  -1.8 °C 29.75 in /  1007.3 hPa East 4.5 mph /  7.2 km/h 5.0 mph /  8 km/h 93 % 0.00 in /  0 mm
16:12 30.6 °F /  -0.8 °C 28.8 °F /  -1.8 °C 29.74 in /  1007 hPa East 3.6 mph /  5.8 km/h 8.1 mph /  13 km/h 93 % 0.00 in /  0 mm
16:17 30.8 °F /  -0.7 °C 29.3 °F /  -1.5 °C 29.75 in /  1007.3 hPa East 3.7 mph /  6 km/h 6.0 mph /  9.7 km/h 94 % 0.00 in /  0 mm
16:22 30.9 °F /  -0.6 °C 29.4 °F /  -1.4 °C 29.75 in /  1007.3 hPa East 2.9 mph /  4.7 km/h 5.8 mph /  9.3 km/h 94 % 0.00 in /  0 mm
16:27 31.0 °F /  -0.6 °C 29.5 °F /  -1.4 °C 29.75 in /  1007.3 hPa East 5.0 mph /  8 km/h 9.2 mph /  14.8 km/h 94 % 0.00 in /  0 mm
16:32 31.1 °F /  -0.5 °C 29.6 °F /  -1.3 °C 29.74 in /  1007 hPa East 3.9 mph /  6.3 km/h 5.8 mph /  9.3 km/h 94 % 0.00 in /  0 mm
16:37 31.2 °F /  -0.4 °C 29.7 °F /  -1.3 °C 29.76 in /  1007.7 hPa NNE 1.7 mph /  2.7 km/h 3.5 mph /  5.6 km/h 94 % 0.00 in /  0 mm
16:42 31.3 °F /  -0.4 °C 29.8 °F /  -1.2 °C 29.75 in /  1007.3 hPa East 6.7 mph /  10.8 km/h 9.0 mph /  14.5 km/h 94 % 0.00 in /  0 mm
16:47 31.4 °F /  -0.3 °C 29.9 °F /  -1.2 °C 29.75 in /  1007.3 hPa East 5.1 mph /  8.2 km/h 7.0 mph /  11.3 km/h 94 % 0.00 in /  0 mm
16:52 31.5 °F /  -0.3 °C 29.7 °F /  -1.3 °C 29.77 in /  1008 hPa Calm     93 % 0.00 in /  0 mm
16:57 31.5 °F /  -0.3 °C 29.7 °F /  -1.3 °C 29.76 in /  1007.7 hPa East 2.7 mph /  4.3 km/h 5.0 mph /  8 km/h 93 % 0.00 in /  0 mm
17:02 31.5 °F /  -0.3 °C 29.7 °F /  -1.3 °C 29.77 in /  1008 hPa ENE 2.2 mph /  3.5 km/h 4.6 mph /  7.4 km/h 93 % 0.00 in /  0 mm
17:07 31.6 °F /  -0.2 °C 29.8 °F /  -1.2 °C 29.77 in /  1008 hPa ESE 2.0 mph /  3.2 km/h 3.5 mph /  5.6 km/h 93 % 0.00 in /  0 mm
17:12 31.6 °F /  -0.2 °C 29.8 °F /  -1.2 °C 29.78 in /  1008.4 hPa East 1.9 mph /  3.1 km/h 3.5 mph /  5.6 km/h 93 % 0.00 in /  0 mm
17:17 31.7 °F /  -0.2 °C 29.9 °F /  -1.2 °C 29.77 in /  1008 hPa East 1.3 mph /  2.1 km/h 3.5 mph /  5.6 km/h 93 % 0.00 in /  0 mm
17:22 31.7 °F /  -0.2 °C 29.9 °F /  -1.2 °C 29.77 in /  1008 hPa East 0.5 mph /  0.8 km/h 2.0 mph /  3.2 km/h 93 % 0.00 in /  0 mm
17:27 31.8 °F /  -0.1 °C 30.0 °F /  -1.1 °C 29.77 in /  1008 hPa East 1.4 mph /  2.3 km/h 2.3 mph /  3.7 km/h 93 % 0.00 in /  0 mm
17:32 31.7 °F /  -0.2 °C 29.9 °F /  -1.2 °C 29.77 in /  1008 hPa East 0.1 mph /  0.2 km/h 1.0 mph /  1.6 km/h 93 % 0.00 in /  0 mm
17:37 31.7 °F /  -0.2 °C 29.9 °F /  -1.2 °C 29.77 in /  1008 hPa East 1.7 mph /  2.7 km/h 3.0 mph /  4.8 km/h 93 % 0.00 in /  0 mm
17:42 31.7 °F /  -0.2 °C 29.9 °F /  -1.2 °C 29.77 in /  1008 hPa East 1.2 mph /  1.9 km/h 2.3 mph /  3.7 km/h 93 % 0.00 in /  0 mm
17:47 31.7 °F /  -0.2 °C 29.9 °F /  -1.2 °C 29.77 in /  1008 hPa East 1.0 mph /  1.6 km/h 2.3 mph /  3.7 km/h 93 % 0.00 in /  0 mm
17:52 31.8 °F /  -0.1 °C 30.0 °F /  -1.1 °C 29.77 in /  1008 hPa East 1.5 mph /  2.4 km/h 3.5 mph /  5.6 km/h 93 % 0.00 in /  0 mm
17:57 31.8 °F /  -0.1 °C 30.0 °F /  -1.1 °C 29.78 in /  1008.4 hPa East 1.7 mph /  2.7 km/h 3.5 mph /  5.6 km/h 93 % 0.00 in /  0 mm
18:02 31.9 °F /  -0.1 °C 30.4 °F /  -0.9 °C 29.78 in /  1008.4 hPa East 2.8 mph /  4.5 km/h 5.0 mph /  8 km/h 94 % 0.00 in /  0 mm
18:07 32.0 °F /  0 °C 30.5 °F /  -0.8 °C 29.78 in /  1008.4 hPa East 2.5 mph /  4 km/h 4.6 mph /  7.4 km/h 94 % 0.00 in /  0 mm
18:13 32.1 °F /  0.1 °C 30.6 °F /  -0.8 °C 29.79 in /  1008.7 hPa East 2.2 mph /  3.5 km/h 2.3 mph /  3.7 km/h 94 % 0.00 in /  0 mm
18:18 32.1 °F /  0.1 °C 30.6 °F /  -0.8 °C 29.78 in /  1008.4 hPa East 2.2 mph /  3.5 km/h 4.6 mph /  7.4 km/h 94 % 0.00 in /  0 mm
18:23 32.2 °F /  0.1 °C 30.7 °F /  -0.7 °C 29.79 in /  1008.7 hPa East 2.4 mph /  3.9 km/h 4.6 mph /  7.4 km/h 94 % 0.00 in /  0 mm
18:28 32.3 °F /  0.2 °C 30.8 °F /  -0.7 °C 29.79 in /  1008.7 hPa ENE 1.4 mph /  2.3 km/h 3.5 mph /  5.6 km/h 94 % 0.00 in /  0 mm
18:33 32.4 °F /  0.2 °C 30.9 °F /  -0.6 °C 29.79 in /  1008.7 hPa East 1.0 mph /  1.6 km/h 2.3 mph /  3.7 km/h 94 % 0.00 in /  0 mm
18:38 32.4 °F /  0.2 °C 30.9 °F /  -0.6 °C 29.79 in /  1008.7 hPa ESE 2.4 mph /  3.9 km/h 3.5 mph /  5.6 km/h 94 % 0.00 in /  0 mm
18:43 32.5 °F /  0.3 °C 31.0 °F /  -0.6 °C 29.79 in /  1008.7 hPa East 1.9 mph /  3.1 km/h 3.5 mph /  5.6 km/h 94 % 0.00 in /  0 mm
18:48 32.4 °F /  0.2 °C 30.9 °F /  -0.6 °C 29.79 in /  1008.7 hPa East 0.1 mph /  0.2 km/h 1.2 mph /  1.9 km/h 94 % 0.00 in /  0 mm
18:53 32.5 °F /  0.3 °C 31.0 °F /  -0.6 °C 29.79 in /  1008.7 hPa East 0.9 mph /  1.4 km/h 2.3 mph /  3.7 km/h 94 % 0.00 in /  0 mm
18:58 32.5 °F /  0.3 °C 31.0 °F /  -0.6 °C 29.79 in /  1008.7 hPa East 0.3 mph /  0.5 km/h 2.0 mph /  3.2 km/h 94 % 0.00 in /  0 mm
19:03 32.5 °F /  0.3 °C 31.0 °F /  -0.6 °C 29.80 in /  1009 hPa East 0.4 mph /  0.6 km/h 1.2 mph /  1.9 km/h 94 % 0.00 in /  0 mm
19:08 32.5 °F /  0.3 °C 31.0 °F /  -0.6 °C 29.80 in /  1009 hPa East 0.8 mph /  1.3 km/h 2.3 mph /  3.7 km/h 94 % 0.00 in /  0 mm
19:13 32.5 °F /  0.3 °C 31.0 °F /  -0.6 °C 29.80 in /  1009 hPa East 0.3 mph /  0.5 km/h 2.3 mph /  3.7 km/h 94 % 0.00 in /  0 mm
19:18 32.5 °F /  0.3 °C 31.0 °F /  -0.6 °C 29.80 in /  1009 hPa Calm     94 % 0.00 in /  0 mm
19:23 32.5 °F /  0.3 °C 31.0 °F /  -0.6 °C 29.80 in /  1009 hPa East 2.4 mph /  3.9 km/h 3.5 mph /  5.6 km/h 94 % 0.00 in /  0 mm
19:28 32.7 °F /  0.4 °C 31.4 °F /  -0.3 °C 29.80 in /  1009 hPa East 1.3 mph /  2.1 km/h 2.3 mph /  3.7 km/h 95 % 0.00 in /  0 mm
19:33 32.8 °F /  0.4 °C 31.5 °F /  -0.3 °C 29.80 in /  1009 hPa ENE 6.6 mph /  10.6 km/h 9.2 mph /  14.8 km/h 95 % 0.00 in /  0 mm
19:38 33.0 °F /  0.6 °C 31.7 °F /  -0.2 °C 29.80 in /  1009 hPa ENE 6.7 mph /  10.8 km/h 9.2 mph /  14.8 km/h 95 % 0.00 in /  0 mm
19:43 33.0 °F /  0.6 °C 31.7 °F /  -0.2 °C 29.81 in /  1009.4 hPa WSW 2.9 mph /  4.7 km/h 3.5 mph /  5.6 km/h 95 % 0.00 in /  0 mm
19:48 33.0 °F /  0.6 °C 31.7 °F /  -0.2 °C 29.80 in /  1009 hPa ENE 5.3 mph /  8.5 km/h 7.0 mph /  11.3 km/h 95 % 0.00 in /  0 mm
19:53 32.9 °F /  0.5 °C 31.4 °F /  -0.3 °C 29.80 in /  1009 hPa ENE 2.0 mph /  3.2 km/h 7.0 mph /  11.3 km/h 94 % 0.00 in /  0 mm
19:59 32.8 °F /  0.4 °C 31.3 °F /  -0.4 °C 29.80 in /  1009 hPa ENE 3.7 mph /  6 km/h 8.1 mph /  13 km/h 94 % 0.00 in /  0 mm
20:04 32.7 °F /  0.4 °C 31.2 °F /  -0.4 °C 29.80 in /  1009 hPa ENE 2.6 mph /  4.2 km/h 9.2 mph /  14.8 km/h 94 % 0.00 in /  0 mm
20:09 32.7 °F /  0.4 °C 31.4 °F /  -0.3 °C 29.80 in /  1009 hPa East 2.2 mph /  3.5 km/h 5.0 mph /  8 km/h 95 % 0.00 in /  0 mm
20:14 32.7 °F /  0.4 °C 31.4 °F /  -0.3 °C 29.80 in /  1009 hPa ENE 2.7 mph /  4.3 km/h 3.5 mph /  5.6 km/h 95 % 0.00 in /  0 mm
20:19 32.6 °F /  0.3 °C 31.3 °F /  -0.4 °C 29.80 in /  1009 hPa ENE 2.6 mph /  4.2 km/h 4.6 mph /  7.4 km/h 95 % 0.00 in /  0 mm
20:24 32.6 °F /  0.3 °C 31.3 °F /  -0.4 °C 29.80 in /  1009 hPa ENE 3.5 mph /  5.6 km/h 6.9 mph /  11.1 km/h 95 % 0.00 in /  0 mm
20:29 32.5 °F /  0.3 °C 31.2 °F /  -0.4 °C 29.80 in /  1009 hPa ENE 4.5 mph /  7.2 km/h 6.9 mph /  11.1 km/h 95 % 0.00 in /  0 mm
20:34 32.5 °F /  0.3 °C 31.2 °F /  -0.4 °C 29.80 in /  1009 hPa ENE 3.3 mph /  5.3 km/h 4.6 mph /  7.4 km/h 95 % 0.00 in /  0 mm
20:39 32.4 °F /  0.2 °C 31.1 °F /  -0.5 °C 29.80 in /  1009 hPa ENE 2.5 mph /  4 km/h 3.5 mph /  5.6 km/h 95 % 0.00 in /  0 mm
20:44 32.5 °F /  0.3 °C 31.2 °F /  -0.4 °C 29.80 in /  1009 hPa ENE 2.3 mph /  3.7 km/h 3.5 mph /  5.6 km/h 95 % 0.00 in /  0 mm
20:49 32.5 °F /  0.3 °C 31.2 °F /  -0.4 °C 29.80 in /  1009 hPa NE 4.1 mph /  6.6 km/h 4.6 mph /  7.4 km/h 95 % 0.00 in /  0 mm
20:54 32.5 °F /  0.3 °C 31.2 °F /  -0.4 °C 29.80 in /  1009 hPa ENE 3.1 mph /  5 km/h 4.6 mph /  7.4 km/h 95 % 0.00 in /  0 mm
20:59 32.6 °F /  0.3 °C 31.3 °F /  -0.4 °C 29.80 in /  1009 hPa ENE 3.0 mph /  4.8 km/h 4.6 mph /  7.4 km/h 95 % 0.00 in /  0 mm
21:04 32.6 °F /  0.3 °C 31.3 °F /  -0.4 °C 29.80 in /  1009 hPa ENE 2.4 mph /  3.9 km/h 3.5 mph /  5.6 km/h 95 % 0.00 in /  0 mm
21:09 32.6 °F /  0.3 °C 31.3 °F /  -0.4 °C 29.80 in /  1009 hPa ENE 2.5 mph /  4 km/h 3.5 mph /  5.6 km/h 95 % 0.00 in /  0 mm
21:14 32.6 °F /  0.3 °C 31.3 °F /  -0.4 °C 29.80 in /  1009 hPa ENE 2.1 mph /  3.4 km/h 3.5 mph /  5.6 km/h 95 % 0.00 in /  0 mm
21:19 32.6 °F /  0.3 °C 31.3 °F /  -0.4 °C 29.80 in /  1009 hPa NE 4.3 mph /  6.9 km/h 6.9 mph /  11.1 km/h 95 % 0.00 in /  0 mm
21:24 32.6 °F /  0.3 °C 31.3 °F /  -0.4 °C 29.80 in /  1009 hPa East 2.6 mph /  4.2 km/h 4.6 mph /  7.4 km/h 95 % 0.00 in /  0 mm
21:29 32.6 °F /  0.3 °C 31.3 °F /  -0.4 °C 29.80 in /  1009 hPa ENE 2.5 mph /  4 km/h 3.5 mph /  5.6 km/h 95 % 0.00 in /  0 mm
21:30 32.6 °F /  0.3 °C 31.3 °F /  -0.4 °C 29.80 in /  1009 hPa ENE 2.3 mph /  3.7 km/h 3.5 mph /  5.6 km/h 95 % 0.00 in /  0 mm
21:35 32.6 °F /  0.3 °C 31.3 °F /  -0.4 °C 29.80 in /  1009 hPa ENE 0.7 mph /  1.1 km/h 3.5 mph /  5.6 km/h 95 % 0.00 in /  0 mm
21:40 32.5 °F /  0.3 °C 31.2 °F /  -0.4 °C 29.81 in /  1009.4 hPa Calm   2.3 mph /  3.7 km/h 95 % 0.00 in /  0 mm
21:45 32.5 °F /  0.3 °C 31.2 °F /  -0.4 °C 29.81 in /  1009.4 hPa Calm     95 % 0.00 in /  0 mm
21:51 32.5 °F /  0.3 °C 31.2 °F /  -0.4 °C 29.81 in /  1009.4 hPa ENE 0.2 mph /  0.3 km/h   95 % 0.00 in /  0 mm
21:56 32.4 °F /  0.2 °C 31.1 °F /  -0.5 °C 29.81 in /  1009.4 hPa Calm     95 % 0.00 in /  0 mm
22:01 32.4 °F /  0.2 °C 31.1 °F /  -0.5 °C 29.82 in /  1009.7 hPa Calm     95 % 0.00 in /  0 mm
22:06 32.5 °F /  0.3 °C 31.2 °F /  -0.4 °C 29.81 in /  1009.4 hPa Calm     95 % 0.00 in /  0 mm
22:11 32.5 °F /  0.3 °C 31.2 °F /  -0.4 °C 29.82 in /  1009.7 hPa Calm     95 % 0.00 in /  0 mm
22:16 32.4 °F /  0.2 °C 31.1 °F /  -0.5 °C 29.82 in /  1009.7 hPa ENE 1.2 mph /  1.9 km/h 2.3 mph /  3.7 km/h 95 % 0.00 in /  0 mm
22:21 32.3 °F /  0.2 °C 31.0 °F /  -0.6 °C 29.82 in /  1009.7 hPa ENE 0.1 mph /  0.2 km/h 1.2 mph /  1.9 km/h 95 % 0.00 in /  0 mm
22:26 32.3 °F /  0.2 °C 31.0 °F /  -0.6 °C 29.81 in /  1009.4 hPa ENE 0.5 mph /  0.8 km/h 2.3 mph /  3.7 km/h 95 % 0.00 in /  0 mm
22:31 32.3 °F /  0.2 °C 31.0 °F /  -0.6 °C 29.82 in /  1009.7 hPa Calm   2.3 mph /  3.7 km/h 95 % 0.00 in /  0 mm
22:36 32.3 °F /  0.2 °C 31.0 °F /  -0.6 °C 29.82 in /  1009.7 hPa Calm     95 % 0.00 in /  0 mm
22:41 32.3 °F /  0.2 °C 31.0 °F /  -0.6 °C 29.81 in /  1009.4 hPa Calm     95 % 0.00 in /  0 mm
22:46 32.2 °F /  0.1 °C 30.9 °F /  -0.6 °C 29.81 in /  1009.4 hPa Calm   2.3 mph /  3.7 km/h 95 % 0.00 in /  0 mm
22:51 32.2 °F /  0.1 °C 30.9 °F /  -0.6 °C 29.81 in /  1009.4 hPa Calm     95 % 0.00 in /  0 mm
22:56 32.2 °F /  0.1 °C 30.9 °F /  -0.6 °C 29.82 in /  1009.7 hPa Calm     95 % 0.00 in /  0 mm
23:01 32.2 °F /  0.1 °C 30.9 °F /  -0.6 °C 29.81 in /  1009.4 hPa Calm     95 % 0.00 in /  0 mm
23:06 32.2 °F /  0.1 °C 30.9 °F /  -0.6 °C 29.82 in /  1009.7 hPa Calm     95 % 0.00 in /  0 mm
23:11 32.3 °F /  0.2 °C 31.0 °F /  -0.6 °C 29.82 in /  1009.7 hPa Calm     95 % 0.00 in /  0 mm
23:16 32.2 °F /  0.1 °C 30.9 °F /  -0.6 °C 29.82 in /  1009.7 hPa Calm     95 % 0.00 in /  0 mm
23:21 32.1 °F /  0.1 °C 30.8 °F /  -0.7 °C 29.82 in /  1009.7 hPa Calm     95 % 0.00 in /  0 mm
23:26 32.0 °F /  0 °C 30.7 °F /  -0.7 °C 29.82 in /  1009.7 hPa Calm     95 % 0.00 in /  0 mm
23:31 31.9 °F /  -0.1 °C 30.6 °F /  -0.8 °C 29.81 in /  1009.4 hPa Calm     95 % 0.00 in /  0 mm
23:36 31.9 °F /  -0.1 °C 30.6 °F /  -0.8 °C 29.81 in /  1009.4 hPa Calm     95 % 0.00 in /  0 mm
23:41 31.8 °F /  -0.1 °C 30.5 °F /  -0.8 °C 29.81 in /  1009.4 hPa Calm     95 % 0.00 in /  0 mm
23:46 31.8 °F /  -0.1 °C 30.5 °F /  -0.8 °C 29.81 in /  1009.4 hPa Calm     95 % 0.00 in /  0 mm
23:51 31.8 °F /  -0.1 °C 30.3 °F /  -0.9 °C 29.81 in /  1009.4 hPa Calm     94 % 0.00 in /  0 mm
23:57 31.7 °F /  -0.2 °C 30.2 °F /  -1 °C 29.81 in /  1009.4 hPa Calm     94 % 0.00 in /  0 mm
Crab Meadow Weather
Compliments of Weather Underground - 3 mb

Script developed by  Jim McMurry - jmcmurry@mwt.net Adapted for the template by  Wim van der Kuil - Leuven-Template.eu

Weather Terms: Tornado Watch - Conditions are favorable for the development of severe thunderstorms and tornadoes in and close to the watch area. These watches are issued for large areas by the Storm Prediction Center in Norman, Oklahoma, and are usually valid for four to six hours.